sensor_id;sensor_type;location;lat;lon;timestamp;pressure;altitude;pressure_sealevel;temperature;humidity
63500;BME280;49654;51.142;14.924;2023-11-22T00:01:20;99714.38;;;3.53;75.25
63500;BME280;49654;51.142;14.924;2023-11-22T00:03:47;99712.00;;;3.38;75.04
63500;BME280;49654;51.142;14.924;2023-11-22T00:06:14;99678.28;;;3.20;75.35
63500;BME280;49654;51.142;14.924;2023-11-22T00:08:43;99646.19;;;3.15;75.20
63500;BME280;49654;51.142;14.924;2023-11-22T00:11:10;99742.63;;;3.64;74.92
63500;BME280;49654;51.142;14.924;2023-11-22T00:13:39;99660.78;;;3.14;74.65
63500;BME280;49654;51.142;14.924;2023-11-22T00:16:06;99641.19;;;3.13;75.11
63500;BME280;49654;51.142;14.924;2023-11-22T00:18:34;99747.63;;;3.76;74.98
63500;BME280;49654;51.142;14.924;2023-11-22T00:21:03;99750.09;;;3.67;74.97
63500;BME280;49654;51.142;14.924;2023-11-22T00:23:30;99758.75;;;3.77;75.16
63500;BME280;49654;51.142;14.924;2023-11-22T00:25:59;99673.41;;;3.17;74.69
63500;BME280;49654;51.142;14.924;2023-11-22T00:28:25;99691.56;;;3.14;74.79
63500;BME280;49654;51.142;14.924;2023-11-22T00:30:53;99769.00;;;3.55;75.12
63500;BME280;49654;51.142;14.924;2023-11-22T00:33:20;99736.06;;;3.37;75.64
63500;BME280;49654;51.142;14.924;2023-11-22T00:35:47;99728.66;;;3.10;75.63
63500;BME280;49654;51.142;14.924;2023-11-22T00:38:15;99769.09;;;3.42;75.45
63500;BME280;49654;51.142;14.924;2023-11-22T00:40:43;99658.94;;;2.70;75.26
63500;BME280;49654;51.142;14.924;2023-11-22T00:43:11;99743.28;;;3.32;75.48
63500;BME280;49654;51.142;14.924;2023-11-22T00:45:38;99779.09;;;3.34;75.00
63500;BME280;49654;51.142;14.924;2023-11-22T00:48:06;99757.91;;;3.43;75.67
63500;BME280;49654;51.142;14.924;2023-11-22T00:50:33;99754.41;;;3.55;75.00
63500;BME280;49654;51.142;14.924;2023-11-22T00:53:00;99764.00;;;3.64;74.47
63500;BME280;49654;51.142;14.924;2023-11-22T00:55:27;99723.78;;;3.30;74.56
63500;BME280;49654;51.142;14.924;2023-11-22T00:57:54;99763.00;;;3.32;75.13
63500;BME280;49654;51.142;14.924;2023-11-22T01:00:23;99755.44;;;3.41;74.74
63500;BME280;49654;51.142;14.924;2023-11-22T01:02:50;99791.41;;;3.64;74.52
63500;BME280;49654;51.142;14.924;2023-11-22T01:05:18;99776.00;;;3.64;74.84
63500;BME280;49654;51.142;14.924;2023-11-22T01:07:45;99741.31;;;3.36;74.91
63500;BME280;49654;51.142;14.924;2023-11-22T01:10:12;99765.50;;;3.56;74.78
63500;BME280;49654;51.142;14.924;2023-11-22T01:12:39;99653.28;;;2.89;74.22
63500;BME280;49654;51.142;14.924;2023-11-22T01:15:08;99750.31;;;3.41;74.74
63500;BME280;49654;51.142;14.924;2023-11-22T01:17:36;99790.25;;;3.68;74.39
63500;BME280;49654;51.142;14.924;2023-11-22T01:20:05;99772.00;;;3.37;74.26
63500;BME280;49654;51.142;14.924;2023-11-22T01:22:37;99743.13;;;3.11;75.12
63500;BME280;49654;51.142;14.924;2023-11-22T01:25:05;99793.50;;;3.47;74.98
63500;BME280;49654;51.142;14.924;2023-11-22T01:27:32;99789.53;;;3.43;75.33
63500;BME280;49654;51.142;14.924;2023-11-22T01:29:59;99772.00;;;3.37;75.37
63500;BME280;49654;51.142;14.924;2023-11-22T01:32:29;99794.31;;;3.48;75.30
63500;BME280;49654;51.142;14.924;2023-11-22T01:34:57;99794.38;;;3.24;74.84
63500;BME280;49654;51.142;14.924;2023-11-22T01:37:24;99798.94;;;3.32;75.56
63500;BME280;49654;51.142;14.924;2023-11-22T01:39:53;99792.91;;;3.44;75.68
63500;BME280;49654;51.142;14.924;2023-11-22T01:42:20;99729.97;;;2.81;74.90
63500;BME280;49654;51.142;14.924;2023-11-22T01:44:49;99723.56;;;2.86;75.18
63500;BME280;49654;51.142;14.924;2023-11-22T01:47:16;99808.03;;;3.24;75.79
63500;BME280;49654;51.142;14.924;2023-11-22T01:49:44;99787.81;;;3.09;76.10
63500;BME280;49654;51.142;14.924;2023-11-22T01:52:13;99806.31;;;3.36;75.87
63500;BME280;49654;51.142;14.924;2023-11-22T01:54:41;99814.81;;;3.37;75.68
63500;BME280;49654;51.142;14.924;2023-11-22T01:57:08;99819.03;;;3.38;75.12
63500;BME280;49654;51.142;14.924;2023-11-22T01:59:37;99823.69;;;3.33;74.80
63500;BME280;49654;51.142;14.924;2023-11-22T02:02:04;99817.81;;;3.19;75.25
63500;BME280;49654;51.142;14.924;2023-11-22T02:04:32;99850.66;;;3.38;75.03
63500;BME280;49654;51.142;14.924;2023-11-22T02:06:59;99783.44;;;2.74;74.26
63500;BME280;49654;51.142;14.924;2023-11-22T02:09:27;99811.16;;;2.93;74.97
63500;BME280;49654;51.142;14.924;2023-11-22T02:11:54;99856.44;;;3.29;75.00
63500;BME280;49654;51.142;14.924;2023-11-22T02:14:21;99865.63;;;3.44;75.29
63500;BME280;49654;51.142;14.924;2023-11-22T02:16:49;99866.56;;;3.19;74.86
63500;BME280;49654;51.142;14.924;2023-11-22T02:19:17;99809.81;;;3.00;74.78
63500;BME280;49654;51.142;14.924;2023-11-22T02:21:44;99849.25;;;3.34;74.83
63500;BME280;49654;51.142;14.924;2023-11-22T02:24:13;99797.81;;;3.12;74.25
63500;BME280;49654;51.142;14.924;2023-11-22T02:26:43;99881.22;;;3.65;74.07
63500;BME280;49654;51.142;14.924;2023-11-22T02:29:11;99702.22;;;2.50;73.88
63500;BME280;49654;51.142;14.924;2023-11-22T02:31:41;99706.84;;;2.45;72.37
63500;BME280;49654;51.142;14.924;2023-11-22T02:34:08;99829.97;;;3.29;72.96
63500;BME280;49654;51.142;14.924;2023-11-22T02:36:36;99870.81;;;3.32;73.49
63500;BME280;49654;51.142;14.924;2023-11-22T02:39:03;99821.66;;;2.90;74.09
63500;BME280;49654;51.142;14.924;2023-11-22T02:41:31;99882.13;;;3.29;74.52
63500;BME280;49654;51.142;14.924;2023-11-22T02:44:00;99894.00;;;3.43;74.27
63500;BME280;49654;51.142;14.924;2023-11-22T02:46:27;99847.53;;;3.11;73.87
63500;BME280;49654;51.142;14.924;2023-11-22T02:48:54;99886.06;;;2.98;74.23
63500;BME280;49654;51.142;14.924;2023-11-22T02:51:22;99874.25;;;2.95;74.56
63500;BME280;49654;51.142;14.924;2023-11-22T02:53:49;99819.56;;;2.71;75.04
63500;BME280;49654;51.142;14.924;2023-11-22T02:56:17;99878.75;;;3.05;75.27
63500;BME280;49654;51.142;14.924;2023-11-22T02:58:46;99912.06;;;3.17;74.58
63500;BME280;49654;51.142;14.924;2023-11-22T03:01:13;99915.53;;;3.16;74.84
63500;BME280;49654;51.142;14.924;2023-11-22T03:03:40;99922.06;;;3.09;75.64
63500;BME280;49654;51.142;14.924;2023-11-22T03:06:07;99886.41;;;3.17;75.43
63500;BME280;49654;51.142;14.924;2023-11-22T03:08:34;99821.25;;;2.59;75.32
63500;BME280;49654;51.142;14.924;2023-11-22T03:11:01;99895.06;;;3.28;75.32
63500;BME280;49654;51.142;14.924;2023-11-22T03:13:46;99893.44;;;3.03;75.26
63500;BME280;49654;51.142;14.924;2023-11-22T03:16:15;99907.97;;;3.15;75.56
63500;BME280;49654;51.142;14.924;2023-11-22T03:18:42;99907.63;;;3.19;75.10
63500;BME280;49654;51.142;14.924;2023-11-22T03:21:09;99893.38;;;3.15;74.93
63500;BME280;49654;51.142;14.924;2023-11-22T03:23:36;99906.63;;;3.22;75.05
63500;BME280;49654;51.142;14.924;2023-11-22T03:26:03;99864.88;;;2.83;74.57
63500;BME280;49654;51.142;14.924;2023-11-22T03:28:30;99927.19;;;3.09;74.95
63500;BME280;49654;51.142;14.924;2023-11-22T03:31:00;99916.84;;;2.98;75.53
63500;BME280;49654;51.142;14.924;2023-11-22T03:33:28;99845.13;;;2.60;74.88
63500;BME280;49654;51.142;14.924;2023-11-22T03:35:56;99923.63;;;2.99;75.00
63500;BME280;49654;51.142;14.924;2023-11-22T03:38:24;99837.69;;;2.44;75.19
63500;BME280;49654;51.142;14.924;2023-11-22T03:40:51;99903.69;;;2.79;75.34
63500;BME280;49654;51.142;14.924;2023-11-22T03:43:19;99726.47;;;1.97;75.10
63500;BME280;49654;51.142;14.924;2023-11-22T03:45:46;99878.00;;;2.91;75.16
63500;BME280;49654;51.142;14.924;2023-11-22T03:48:14;99925.78;;;3.05;75.26
63500;BME280;49654;51.142;14.924;2023-11-22T03:50:41;99908.56;;;3.18;74.96
63500;BME280;49654;51.142;14.924;2023-11-22T03:53:09;99929.25;;;3.28;74.97
63500;BME280;49654;51.142;14.924;2023-11-22T03:55:36;99927.63;;;3.27;74.13
63500;BME280;49654;51.142;14.924;2023-11-22T03:58:03;99824.72;;;2.71;74.25
63500;BME280;49654;51.142;14.924;2023-11-22T04:00:30;99945.59;;;3.27;73.47
63500;BME280;49654;51.142;14.924;2023-11-22T04:02:58;99972.19;;;3.50;73.15
63500;BME280;49654;51.142;14.924;2023-11-22T04:05:29;99955.63;;;3.43;73.48
63500;BME280;49654;51.142;14.924;2023-11-22T04:07:56;99869.38;;;2.92;73.27
63500;BME280;49654;51.142;14.924;2023-11-22T04:10:23;99890.00;;;3.15;73.04
63500;BME280;49654;51.142;14.924;2023-11-22T04:12:50;99858.13;;;2.69;73.04
63500;BME280;49654;51.142;14.924;2023-11-22T04:15:18;99916.25;;;2.94;73.53
63500;BME280;49654;51.142;14.924;2023-11-22T04:17:45;99987.72;;;3.12;74.21
63500;BME280;49654;51.142;14.924;2023-11-22T04:20:13;99960.91;;;2.92;73.83
63500;BME280;49654;51.142;14.924;2023-11-22T04:22:43;100000.84;;;3.20;74.07
63500;BME280;49654;51.142;14.924;2023-11-22T04:25:11;99980.00;;;2.88;74.33
63500;BME280;49654;51.142;14.924;2023-11-22T04:27:39;100024.13;;;2.93;74.49
63500;BME280;49654;51.142;14.924;2023-11-22T04:30:07;99985.75;;;2.91;75.16
63500;BME280;49654;51.142;14.924;2023-11-22T04:32:39;100034.13;;;3.34;74.61
63500;BME280;49654;51.142;14.924;2023-11-22T04:35:07;100036.34;;;3.39;74.42
63500;BME280;49654;51.142;14.924;2023-11-22T04:37:35;100008.25;;;3.24;74.57
63500;BME280;49654;51.142;14.924;2023-11-22T04:40:05;100016.44;;;3.30;74.03
63500;BME280;49654;51.142;14.924;2023-11-22T04:42:34;100040.16;;;3.33;74.04
63500;BME280;49654;51.142;14.924;2023-11-22T04:45:01;100056.66;;;3.05;73.43
63500;BME280;49654;51.142;14.924;2023-11-22T04:47:28;100070.91;;;2.96;74.33
63500;BME280;49654;51.142;14.924;2023-11-22T04:49:55;100073.16;;;3.01;74.53
63500;BME280;49654;51.142;14.924;2023-11-22T04:52:22;100063.53;;;3.05;74.62
63500;BME280;49654;51.142;14.924;2023-11-22T04:54:49;100062.47;;;3.07;74.67
63500;BME280;49654;51.142;14.924;2023-11-22T04:57:18;100077.03;;;3.19;74.14
63500;BME280;49654;51.142;14.924;2023-11-22T04:59:45;100085.28;;;2.86;75.00
63500;BME280;49654;51.142;14.924;2023-11-22T05:02:12;100093.50;;;2.66;75.22
63500;BME280;49654;51.142;14.924;2023-11-22T05:04:39;100069.34;;;2.56;75.84
63500;BME280;49654;51.142;14.924;2023-11-22T05:07:09;100013.41;;;2.22;74.88
63500;BME280;49654;51.142;14.924;2023-11-22T05:09:36;100105.19;;;2.83;74.80
63500;BME280;49654;51.142;14.924;2023-11-22T05:12:03;100073.78;;;2.66;74.79
63500;BME280;49654;51.142;14.924;2023-11-22T05:14:31;99955.38;;;1.96;73.97
63500;BME280;49654;51.142;14.924;2023-11-22T05:16:58;100115.88;;;3.02;74.15
63500;BME280;49654;51.142;14.924;2023-11-22T05:19:26;100115.44;;;3.08;74.13
63500;BME280;49654;51.142;14.924;2023-11-22T05:21:53;99949.72;;;1.78;73.19
63500;BME280;49654;51.142;14.924;2023-11-22T05:24:20;100043.31;;;2.36;73.12
63500;BME280;49654;51.142;14.924;2023-11-22T05:26:47;100047.19;;;2.42;73.21
63500;BME280;49654;51.142;14.924;2023-11-22T05:29:14;100110.53;;;2.80;73.42
63500;BME280;49654;51.142;14.924;2023-11-22T05:31:42;100011.81;;;2.34;73.81
63500;BME280;49654;51.142;14.924;2023-11-22T05:34:10;100130.53;;;2.74;72.83
63500;BME280;49654;51.142;14.924;2023-11-22T05:36:37;100103.22;;;2.73;73.80
63500;BME280;49654;51.142;14.924;2023-11-22T05:39:04;100049.25;;;2.49;73.89
63500;BME280;49654;51.142;14.924;2023-11-22T05:41:31;100136.19;;;3.05;74.28
63500;BME280;49654;51.142;14.924;2023-11-22T05:43:58;100074.81;;;2.76;73.42
63500;BME280;49654;51.142;14.924;2023-11-22T05:46:25;100107.66;;;2.97;72.70
63500;BME280;49654;51.142;14.924;2023-11-22T05:48:54;100120.69;;;3.07;73.09
63500;BME280;49654;51.142;14.924;2023-11-22T05:51:21;100120.81;;;3.05;72.70
63500;BME280;49654;51.142;14.924;2023-11-22T05:53:48;100079.44;;;2.71;72.98
63500;BME280;49654;51.142;14.924;2023-11-22T05:56:15;100020.59;;;2.17;72.50
63500;BME280;49654;51.142;14.924;2023-11-22T05:58:42;100139.06;;;2.88;73.27
63500;BME280;49654;51.142;14.924;2023-11-22T06:01:09;100099.81;;;2.47;73.35
63500;BME280;49654;51.142;14.924;2023-11-22T06:03:37;100097.28;;;2.20;74.18
63500;BME280;49654;51.142;14.924;2023-11-22T06:06:07;100088.69;;;2.34;73.97
63500;BME280;49654;51.142;14.924;2023-11-22T06:08:34;100140.69;;;2.76;73.66
63500;BME280;49654;51.142;14.924;2023-11-22T06:11:02;100112.44;;;2.63;73.58
63500;BME280;49654;51.142;14.924;2023-11-22T06:13:29;100127.34;;;2.84;73.87
63500;BME280;49654;51.142;14.924;2023-11-22T06:15:57;100135.38;;;2.92;73.44
63500;BME280;49654;51.142;14.924;2023-11-22T06:18:24;100127.06;;;2.88;72.92
63500;BME280;49654;51.142;14.924;2023-11-22T06:20:55;100109.41;;;2.84;73.02
63500;BME280;49654;51.142;14.924;2023-11-22T06:23:24;100133.19;;;2.86;72.92
63500;BME280;49654;51.142;14.924;2023-11-22T06:25:51;100138.63;;;2.81;72.48
63500;BME280;49654;51.142;14.924;2023-11-22T06:28:18;100151.66;;;2.91;73.22
63500;BME280;49654;51.142;14.924;2023-11-22T06:30:45;100145.22;;;2.85;72.85
63500;BME280;49654;51.142;14.924;2023-11-22T06:33:12;100180.72;;;2.79;72.71
63500;BME280;49654;51.142;14.924;2023-11-22T06:35:39;100143.72;;;2.56;72.89
63500;BME280;49654;51.142;14.924;2023-11-22T06:38:08;100174.16;;;2.87;73.24
63500;BME280;49654;51.142;14.924;2023-11-22T06:40:36;100174.78;;;2.51;73.18
63500;BME280;49654;51.142;14.924;2023-11-22T06:43:03;100183.41;;;2.23;73.45
63500;BME280;49654;51.142;14.924;2023-11-22T06:45:31;100193.50;;;2.39;74.00
63500;BME280;49654;51.142;14.924;2023-11-22T06:47:58;100203.34;;;2.18;74.06
63500;BME280;49654;51.142;14.924;2023-11-22T06:50:25;100198.84;;;2.36;73.85
63500;BME280;49654;51.142;14.924;2023-11-22T06:52:52;100224.47;;;2.36;74.07
63500;BME280;49654;51.142;14.924;2023-11-22T06:55:20;100233.66;;;2.53;73.44
63500;BME280;49654;51.142;14.924;2023-11-22T06:57:49;100240.47;;;2.39;73.77
63500;BME280;49654;51.142;14.924;2023-11-22T07:00:17;100224.91;;;2.42;73.45
63500;BME280;49654;51.142;14.924;2023-11-22T07:02:46;100246.28;;;2.56;73.24
63500;BME280;49654;51.142;14.924;2023-11-22T07:05:13;100249.31;;;2.62;72.31
63500;BME280;49654;51.142;14.924;2023-11-22T07:07:40;100261.31;;;2.62;71.63
63500;BME280;49654;51.142;14.924;2023-11-22T07:10:08;100247.41;;;2.51;71.29
63500;BME280;49654;51.142;14.924;2023-11-22T07:12:37;100169.34;;;2.16;71.63
63500;BME280;49654;51.142;14.924;2023-11-22T07:15:07;100250.78;;;2.52;70.83
63500;BME280;49654;51.142;14.924;2023-11-22T07:17:35;100246.41;;;2.54;71.50
63500;BME280;49654;51.142;14.924;2023-11-22T07:20:03;100264.41;;;2.53;71.27
63500;BME280;49654;51.142;14.924;2023-11-22T07:22:34;100243.03;;;1.98;70.42
63500;BME280;49654;51.142;14.924;2023-11-22T07:25:01;100226.88;;;2.24;71.71
63500;BME280;49654;51.142;14.924;2023-11-22T07:27:29;100235.78;;;2.46;71.24
63500;BME280;49654;51.142;14.924;2023-11-22T07:29:57;100220.78;;;2.40;71.54
63500;BME280;49654;51.142;14.924;2023-11-22T07:32:25;100225.69;;;2.57;72.05
63500;BME280;49654;51.142;14.924;2023-11-22T07:34:53;100165.91;;;2.03;71.55
63500;BME280;49654;51.142;14.924;2023-11-22T07:37:21;100267.34;;;2.61;71.24
63500;BME280;49654;51.142;14.924;2023-11-22T07:39:49;100263.59;;;2.52;70.71
63500;BME280;49654;51.142;14.924;2023-11-22T07:42:16;100280.03;;;2.76;70.86
63500;BME280;49654;51.142;14.924;2023-11-22T07:44:44;100284.78;;;2.83;70.81
63500;BME280;49654;51.142;14.924;2023-11-22T07:47:12;100284.22;;;2.78;70.13
63500;BME280;49654;51.142;14.924;2023-11-22T07:49:40;100288.63;;;2.75;70.46
63500;BME280;49654;51.142;14.924;2023-11-22T07:52:07;100093.75;;;1.55;70.25
63500;BME280;49654;51.142;14.924;2023-11-22T07:54:39;100207.25;;;2.38;70.55
63500;BME280;49654;51.142;14.924;2023-11-22T07:57:06;100091.13;;;1.69;69.63
63500;BME280;49654;51.142;14.924;2023-11-22T07:59:34;100247.00;;;2.85;70.35
63500;BME280;49654;51.142;14.924;2023-11-22T08:02:02;100248.03;;;2.95;69.86
63500;BME280;49654;51.142;14.924;2023-11-22T08:04:32;100264.03;;;2.86;69.13
63500;BME280;49654;51.142;14.924;2023-11-22T08:07:00;100243.13;;;2.65;69.30
63500;BME280;49654;51.142;14.924;2023-11-22T08:09:27;100269.69;;;2.91;69.46
63500;BME280;49654;51.142;14.924;2023-11-22T08:11:58;100281.28;;;2.84;69.38
63500;BME280;49654;51.142;14.924;2023-11-22T08:14:26;100263.56;;;2.93;69.67
63500;BME280;49654;51.142;14.924;2023-11-22T08:16:54;100279.56;;;2.97;69.79
63500;BME280;49654;51.142;14.924;2023-11-22T08:19:21;100238.81;;;2.65;69.65
63500;BME280;49654;51.142;14.924;2023-11-22T08:21:49;100262.22;;;2.88;69.70
63500;BME280;49654;51.142;14.924;2023-11-22T08:24:17;100289.44;;;3.03;69.63
63500;BME280;49654;51.142;14.924;2023-11-22T08:26:44;100292.00;;;3.03;69.62
63500;BME280;49654;51.142;14.924;2023-11-22T08:29:11;100285.47;;;3.24;69.73
63500;BME280;49654;51.142;14.924;2023-11-22T08:31:40;100255.47;;;3.12;68.58
63500;BME280;49654;51.142;14.924;2023-11-22T08:34:07;100260.50;;;3.01;68.20
63500;BME280;49654;51.142;14.924;2023-11-22T08:36:34;100307.66;;;3.13;68.69
63500;BME280;49654;51.142;14.924;2023-11-22T08:39:02;100211.88;;;2.72;69.04
63500;BME280;49654;51.142;14.924;2023-11-22T08:41:33;100306.00;;;3.24;68.20
63500;BME280;49654;51.142;14.924;2023-11-22T08:44:00;100230.88;;;2.70;67.21
63500;BME280;49654;51.142;14.924;2023-11-22T08:46:27;100261.09;;;2.65;67.48
63500;BME280;49654;51.142;14.924;2023-11-22T08:48:54;100298.09;;;3.15;68.75
63500;BME280;49654;51.142;14.924;2023-11-22T08:51:22;100286.91;;;3.16;68.31
63500;BME280;49654;51.142;14.924;2023-11-22T08:53:49;100280.53;;;3.09;67.67
63500;BME280;49654;51.142;14.924;2023-11-22T08:56:16;100315.31;;;3.00;67.32
63500;BME280;49654;51.142;14.924;2023-11-22T08:58:45;100251.94;;;2.61;68.48
63500;BME280;49654;51.142;14.924;2023-11-22T09:01:12;100209.66;;;2.26;67.69
63500;BME280;49654;51.142;14.924;2023-11-22T09:03:40;100287.88;;;2.88;68.44
63500;BME280;49654;51.142;14.924;2023-11-22T09:06:08;100258.44;;;2.66;68.30
63500;BME280;49654;51.142;14.924;2023-11-22T09:08:35;100162.84;;;2.10;68.69
63500;BME280;49654;51.142;14.924;2023-11-22T09:11:02;100336.97;;;2.96;67.72
63500;BME280;49654;51.142;14.924;2023-11-22T09:13:32;100350.13;;;3.04;67.63
63500;BME280;49654;51.142;14.924;2023-11-22T09:16:02;100346.41;;;3.08;68.23
63500;BME280;49654;51.142;14.924;2023-11-22T09:18:31;100340.16;;;3.12;68.29
63500;BME280;49654;51.142;14.924;2023-11-22T09:20:58;100235.75;;;2.33;67.52
63500;BME280;49654;51.142;14.924;2023-11-22T09:23:25;100320.34;;;3.01;68.13
63500;BME280;49654;51.142;14.924;2023-11-22T09:25:53;100355.25;;;3.04;68.06
63500;BME280;49654;51.142;14.924;2023-11-22T09:28:20;100317.28;;;2.82;67.26
63500;BME280;49654;51.142;14.924;2023-11-22T09:30:47;100345.56;;;3.22;67.93
63500;BME280;49654;51.142;14.924;2023-11-22T09:33:16;100326.78;;;3.21;67.33
63500;BME280;49654;51.142;14.924;2023-11-22T09:35:46;100354.88;;;3.10;66.14
63500;BME280;49654;51.142;14.924;2023-11-22T09:38:13;100329.78;;;3.01;67.15
63500;BME280;49654;51.142;14.924;2023-11-22T09:40:42;100336.63;;;3.28;67.48
63500;BME280;49654;51.142;14.924;2023-11-22T09:43:09;100352.50;;;3.47;67.17
63500;BME280;49654;51.142;14.924;2023-11-22T09:45:37;100358.66;;;3.44;66.62
63500;BME280;49654;51.142;14.924;2023-11-22T09:48:10;100364.97;;;3.26;66.10
63500;BME280;49654;51.142;14.924;2023-11-22T09:50:49;100374.28;;;3.14;66.62
63500;BME280;49654;51.142;14.924;2023-11-22T09:53:22;100379.00;;;2.66;65.64
63500;BME280;49654;51.142;14.924;2023-11-22T09:55:52;100378.25;;;3.06;66.23
63500;BME280;49654;51.142;14.924;2023-11-22T09:58:19;100246.41;;;2.40;66.40
63500;BME280;49654;51.142;14.924;2023-11-22T10:00:48;100239.13;;;2.61;66.60
63500;BME280;49654;51.142;14.924;2023-11-22T10:03:15;100251.88;;;2.62;65.90
63500;BME280;49654;51.142;14.924;2023-11-22T10:05:45;100242.94;;;2.68;65.95
63500;BME280;49654;51.142;14.924;2023-11-22T10:08:12;100349.50;;;3.40;66.38
63500;BME280;49654;51.142;14.924;2023-11-22T10:10:40;100218.19;;;2.54;65.74
63500;BME280;49654;51.142;14.924;2023-11-22T10:13:10;100156.28;;;2.06;65.79
63500;BME280;49654;51.142;14.924;2023-11-22T10:15:38;100326.03;;;3.19;65.36
63500;BME280;49654;51.142;14.924;2023-11-22T10:18:06;100262.06;;;2.76;65.28
63500;BME280;49654;51.142;14.924;2023-11-22T10:20:36;100348.44;;;3.17;65.95
63500;BME280;49654;51.142;14.924;2023-11-22T10:23:09;100360.91;;;3.36;66.28
63500;BME280;49654;51.142;14.924;2023-11-22T10:25:37;100326.84;;;3.20;65.65
63500;BME280;49654;51.142;14.924;2023-11-22T10:28:06;100301.69;;;2.85;65.59
63500;BME280;49654;51.142;14.924;2023-11-22T10:30:33;100338.97;;;3.18;65.00
63500;BME280;49654;51.142;14.924;2023-11-22T10:33:02;100319.97;;;3.20;65.20
63500;BME280;49654;51.142;14.924;2023-11-22T10:35:29;100231.09;;;2.80;64.81
63500;BME280;49654;51.142;14.924;2023-11-22T10:37:59;100271.88;;;2.97;64.21
63500;BME280;49654;51.142;14.924;2023-11-22T10:40:29;100227.66;;;3.06;63.88
63500;BME280;49654;51.142;14.924;2023-11-22T10:42:57;100315.03;;;3.83;63.58
63500;BME280;49654;51.142;14.924;2023-11-22T10:45:29;100231.25;;;3.29;62.86
63500;BME280;49654;51.142;14.924;2023-11-22T10:47:58;100154.75;;;2.43;62.71
63500;BME280;49654;51.142;14.924;2023-11-22T10:50:25;100260.09;;;3.07;62.92
63500;BME280;49654;51.142;14.924;2023-11-22T10:52:56;100315.63;;;3.48;63.06
63500;BME280;49654;51.142;14.924;2023-11-22T10:55:26;100323.56;;;3.83;63.70
63500;BME280;49654;51.142;14.924;2023-11-22T10:58:01;100249.97;;;3.31;63.75
63500;BME280;49654;51.142;14.924;2023-11-22T11:00:29;100349.44;;;3.67;63.82
63500;BME280;49654;51.142;14.924;2023-11-22T11:02:59;100351.69;;;3.72;63.60
63500;BME280;49654;51.142;14.924;2023-11-22T11:05:30;100341.94;;;3.64;63.45
63500;BME280;49654;51.142;14.924;2023-11-22T11:08:00;100336.50;;;3.56;63.95
63500;BME280;49654;51.142;14.924;2023-11-22T11:10:32;100347.88;;;3.39;63.73
63500;BME280;49654;51.142;14.924;2023-11-22T11:13:01;100263.06;;;3.01;64.31
63500;BME280;49654;51.142;14.924;2023-11-22T11:15:28;100361.13;;;3.59;64.73
63500;BME280;49654;51.142;14.924;2023-11-22T11:17:54;100344.72;;;3.61;64.31
63500;BME280;49654;51.142;14.924;2023-11-22T11:20:22;100352.88;;;3.41;64.23
63500;BME280;49654;51.142;14.924;2023-11-22T11:22:50;100374.91;;;3.18;63.19
63500;BME280;49654;51.142;14.924;2023-11-22T11:25:18;100320.00;;;2.93;65.97
63500;BME280;49654;51.142;14.924;2023-11-22T11:27:55;100366.06;;;3.49;64.81
63500;BME280;49654;51.142;14.924;2023-11-22T11:30:44;100294.94;;;3.24;64.87
63500;BME280;49654;51.142;14.924;2023-11-22T11:33:12;100371.28;;;3.35;62.95
63500;BME280;49654;51.142;14.924;2023-11-22T11:35:43;100384.59;;;3.67;64.26
63500;BME280;49654;51.142;14.924;2023-11-22T11:38:13;100374.13;;;3.30;62.81
63500;BME280;49654;51.142;14.924;2023-11-22T11:40:41;100376.41;;;4.00;63.66
63500;BME280;49654;51.142;14.924;2023-11-22T11:43:10;100388.50;;;4.49;62.31
63500;BME280;49654;51.142;14.924;2023-11-22T11:45:39;100298.28;;;3.64;62.01
63500;BME280;49654;51.142;14.924;2023-11-22T11:48:14;100321.91;;;3.17;62.05
63500;BME280;49654;51.142;14.924;2023-11-22T11:50:41;100298.31;;;2.58;63.49
63500;BME280;49654;51.142;14.924;2023-11-22T11:53:09;100319.94;;;2.81;63.84
63500;BME280;49654;51.142;14.924;2023-11-22T11:55:37;100414.91;;;3.74;63.43
63500;BME280;49654;51.142;14.924;2023-11-22T11:58:04;100411.13;;;3.93;62.52
63500;BME280;49654;51.142;14.924;2023-11-22T12:00:35;100408.22;;;3.72;61.73
63500;BME280;49654;51.142;14.924;2023-11-22T12:03:07;100403.50;;;3.79;62.58
63500;BME280;49654;51.142;14.924;2023-11-22T12:05:38;100419.13;;;3.75;63.08
63500;BME280;49654;51.142;14.924;2023-11-22T12:08:05;100422.03;;;3.84;62.97
63500;BME280;49654;51.142;14.924;2023-11-22T12:10:32;100422.13;;;3.82;63.22
63500;BME280;49654;51.142;14.924;2023-11-22T12:12:59;100373.50;;;3.66;62.33
63500;BME280;49654;51.142;14.924;2023-11-22T12:15:28;100413.31;;;3.99;63.33
63500;BME280;49654;51.142;14.924;2023-11-22T12:17:55;100406.63;;;3.96;62.19
63500;BME280;49654;51.142;14.924;2023-11-22T12:20:23;100324.97;;;3.62;62.57
63500;BME280;49654;51.142;14.924;2023-11-22T12:22:53;100394.91;;;4.31;60.79
63500;BME280;49654;51.142;14.924;2023-11-22T12:25:20;100322.53;;;4.11;60.02
63500;BME280;49654;51.142;14.924;2023-11-22T12:27:48;100360.38;;;4.71;59.72
63500;BME280;49654;51.142;14.924;2023-11-22T12:30:28;100347.13;;;4.89;60.14
63500;BME280;49654;51.142;14.924;2023-11-22T12:32:56;100332.97;;;4.70;59.55
63500;BME280;49654;51.142;14.924;2023-11-22T12:35:23;100270.38;;;4.09;59.93
63500;BME280;49654;51.142;14.924;2023-11-22T12:37:50;100291.81;;;4.34;59.90
63500;BME280;49654;51.142;14.924;2023-11-22T12:40:21;100317.47;;;4.59;58.53
63500;BME280;49654;51.142;14.924;2023-11-22T12:42:49;100329.81;;;4.67;59.19
63500;BME280;49654;51.142;14.924;2023-11-22T12:45:20;100325.59;;;4.90;58.97
63500;BME280;49654;51.142;14.924;2023-11-22T12:47:49;100287.59;;;4.69;57.93
63500;BME280;49654;51.142;14.924;2023-11-22T12:50:29;100298.84;;;4.80;58.09
63500;BME280;49654;51.142;14.924;2023-11-22T12:52:56;100327.41;;;4.76;55.83
63500;BME280;49654;51.142;14.924;2023-11-22T12:55:25;100302.28;;;4.43;57.95
63500;BME280;49654;51.142;14.924;2023-11-22T12:57:56;100337.25;;;5.07;57.18